Haypoint, Minnesota
Current Conditions -  °F | °C
As of 2:35 AM on Saturday 20 Dec 2014 (Local Time) from KGPZ Reporting Station
Overcast Overcast  
Wind Chill: 18°   Ceiling: 500
Heat Index: 27°   Visibility: 2.5mi
Dew Point: 25°   Wind: 8mph
Humidity: 93%   Direction: 170°S
Pressure: 30.07"   Gusts: NA
Location:  47.0392°N, 93.6273°W
Report Text: KGPZ 200835Z AUTO 17007KT 2 1/2SM OVC005 M03/M04 A3007 RMK AO1
Loading
Personal Weather Stations






























Interactive Weather Map New forecast layout! Learn more

10-Day Weather Forecast

Advertisements
Track Severe Weather on mobile